Orbital elements of COSMOS 1700 DEB
| Launched | 24 October 1985 |
| Flight ended | – |
| Launch site | Tyuratam Missile and Space Center, Kazakhstan (Also known as Baikonur Cosmodrome) |
| Owner | Commonwealth of Independent States (former USSR) |
| NORAD ID | 40924 |
| Date fetched |
Epoch osculation |
Inc. [°] |
Ecc. | RA asc node [hr] |
Arg Peri. [°] |
Mean anom [°] |
Mean motion [rev/day] |
Abs. mag |
| Date fetched |
Epoch osculation |
Inc. [°] |
Ecc. | RA asc node [hr] |
Arg Peri. [°] |
Mean anom [°] |
Mean motion [rev/day] |
Abs. mag |
| 2026 May 01 17:56 | 2026 Apr 30 13:39:50 | 9.7717 | 0.00251 | 21.2729 | 123.6420 | 36.3590 | 1.00231 | – |
| 2026 Apr 30 17:56 | 2026 Apr 30 13:39:50 | 9.7717 | 0.00251 | 21.2729 | 123.6420 | 36.3590 | 1.00231 | – |
| 2026 Apr 29 17:57 | 2026 Apr 22 17:39:28 | 9.7846 | 0.00248 | 21.2759 | 122.6571 | 36.3590 | 1.00231 | – |
| 2026 Apr 28 17:56 | 2026 Apr 22 17:39:28 | 9.7846 | 0.00248 | 21.2759 | 122.6571 | 36.3590 | 1.00231 | – |
| 2026 Apr 27 17:58 | 2026 Apr 22 17:39:28 | 9.7846 | 0.00248 | 21.2759 | 122.6571 | 36.3590 | 1.00231 | – |
| 2026 Apr 26 17:58 | 2026 Apr 22 17:39:28 | 9.7846 | 0.00248 | 21.2759 | 122.6571 | 36.3590 | 1.00231 | – |
| 2026 Apr 25 17:58 | 2026 Apr 22 17:39:28 | 9.7846 | 0.00248 | 21.2759 | 122.6571 | 36.3590 | 1.00231 | – |
| 2026 Apr 24 17:59 | 2026 Apr 22 17:39:28 | 9.7846 | 0.00248 | 21.2759 | 122.6571 | 36.3590 | 1.00231 | – |
| 2026 Apr 23 17:57 | 2026 Apr 19 03:52:10 | 9.7904 | 0.00247 | 21.2774 | 122.3365 | 36.3590 | 1.00231 | – |
| 2026 Apr 22 17:57 | 2026 Apr 19 03:52:10 | 9.7904 | 0.00247 | 21.2774 | 122.3365 | 36.3590 | 1.00231 | – |
| 2026 Apr 21 17:57 | 2026 Apr 19 03:52:10 | 9.7904 | 0.00247 | 21.2774 | 122.3365 | 36.3590 | 1.00231 | – |
| 2026 Apr 20 17:57 | 2026 Apr 19 03:52:10 | 9.7904 | 0.00247 | 21.2774 | 122.3365 | 36.3590 | 1.00231 | – |
| 2026 Apr 19 17:58 | 2026 Apr 19 03:52:10 | 9.7904 | 0.00247 | 21.2774 | 122.3365 | 36.3590 | 1.00231 | – |
| 2026 Apr 18 17:56 | 2026 Apr 12 16:09:19 | 9.8010 | 0.00245 | 21.2800 | 121.7839 | 36.3590 | 1.00231 | – |
| 2026 Apr 16 17:57 | 2026 Apr 12 16:09:19 | 9.8010 | 0.00245 | 21.2800 | 121.7839 | 36.3590 | 1.00231 | – |
| 2026 Apr 14 17:57 | 2026 Apr 12 16:09:19 | 9.8010 | 0.00245 | 21.2800 | 121.7839 | 36.3590 | 1.00231 | – |
| 2026 Apr 13 17:57 | 2026 Apr 12 16:09:19 | 9.8010 | 0.00245 | 21.2800 | 121.7839 | 36.3590 | 1.00231 | – |
| 2026 Apr 12 17:57 | 2026 Apr 07 16:22:08 | 9.8095 | 0.00240 | 21.2819 | 121.3188 | 36.3590 | 1.00231 | – |
| 2026 Apr 11 17:57 | 2026 Apr 07 16:22:08 | 9.8095 | 0.00240 | 21.2819 | 121.3188 | 36.3590 | 1.00231 | – |
| 2026 Apr 10 17:58 | 2026 Apr 07 16:22:08 | 9.8095 | 0.00240 | 21.2819 | 121.3188 | 36.3590 | 1.00231 | – |
| 2026 Apr 09 18:01 | 2026 Apr 07 16:22:08 | 9.8095 | 0.00240 | 21.2819 | 121.3188 | 36.3590 | 1.00231 | – |
| 2026 Apr 08 17:57 | 2026 Apr 07 16:22:08 | 9.8095 | 0.00240 | 21.2819 | 121.3188 | 36.3590 | 1.00231 | – |
| 2026 Apr 07 17:57 | 2026 Apr 01 16:37:16 | 9.8197 | 0.00236 | 21.2842 | 120.7913 | 36.3590 | 1.00231 | – |
| 2026 Apr 06 17:57 | 2026 Apr 01 16:37:16 | 9.8197 | 0.00236 | 21.2842 | 120.7913 | 36.3590 | 1.00231 | – |
| 2026 Apr 05 17:56 | 2026 Apr 01 16:37:16 | 9.8197 | 0.00236 | 21.2842 | 120.7913 | 36.3590 | 1.00231 | – |
| 2026 Apr 04 17:57 | 2026 Apr 01 16:37:16 | 9.8197 | 0.00236 | 21.2842 | 120.7913 | 36.3590 | 1.00231 | – |